Convent, Louisiana
Current Conditions -  °F | °C
As of 8:35 AM on Tuesday 21 Oct 2014 (Local Time) from KL38 Reporting Station
Clear Clear  
Wind Chill: 60°   Ceiling: Unl
Heat Index: 60°   Visibility: 10mi
Dew Point: 55°   Wind: 3mph
Humidity: 83%   Direction: 30°NNE
Pressure: 30.07"   Gusts: NA
Location:  30.02°N, 90.83°W
Report Text: KL38 211335Z AUTO 03003KT 10SM CLR 16/13 A3007 RMK AO2 T01580129
Loading
Personal Weather Stations






























Interactive Weather Map
Tropical Storm Tracking
New forecast layout! Learn more

10-Day Weather Forecast

Advertisements
Track Severe Weather on mobile